Portada
METAR-TAF:

METAR-TAF

Aeroports :

Great Barrier Reef Airport

Illa de Hamilton, Austràlia

latitud: 20-21-29S, longitud: 148-57-06E, altitud: 5 m

Observació

L'informe es va fer fa 12 minuts, a les 20:00 UTC
Vent 3 kt del Nord/Nord-Oest
Temperatura 24°C
Humitat 78%
Pressió 1013 hPa
Visibilitat 10 km o més
Núvols disperses a una alçada de 2700 ft

METAR: YBHM 132000Z AUTO 34003KT 9999 // SCT027 24/20 Q1013

Hora: 06:12 (20:12 UTC)

Pronòstic

L'informe es va fer fa 2 hores i 49 minuts, a les 17:23 UTC
Pronòstic vàlid del 13 a les 18 UTC al 14 a les 06 UTC
Vent 10 kt del Nord/Nord-Oest
Visibilitat 10 km o més
Escasses núvols a una alçada de 2000 ft
A partir de les 13 a les 2300 UTC
Vent 12 kt del Nord
Visibilitat 10 km o més
Escasses núvols a una alçada de 2500 ft

TAF: YBHM 131723Z 1318/1406 33010KT 9999 FEW020 FM132300 01012KT 9999 FEW025

Observacions i pronòstics meteorològics de més de 4000 aeroports (METAR i TAF).

Les estacions disponibles són els punts grocs i vermells al mapa.

Posi el ratolí al punt desitjat per veure el nom de l'estació.

Feu clic per veure les observacions i els pronòstics meteorològics.

Per canviar el mapa: feu clic els botons verds amb una creu de color negre per apropar; al botó verd amb un guió per allunyar la imatge; o en les fletxes verdes per a mapes adjacents.


METAR-TAF: